Tipperary, Ireland
Current Conditions -  °F | °C
As of 12:00 PM on Wednesday 22 Oct 2014 (Local Time) from EINN Reporting Station
Broken Clouds Broken Clouds  
Wind Chill: 57°   Ceiling: 2500
Heat Index: 57°   Visibility: 6mi
Dew Point: 43°   Wind: 20mph
Humidity: 59%   Direction: 230°SW
Pressure: 30.24"   Gusts: NA
Location:  52.49°N, 8.17°W
Report Text: EINN 221200Z 23017KT 9999 BKN025 BKN090 14/06 Q1024 NOSIG
Loading
Personal Weather Stations






























Interactive Weather Map New forecast layout! Learn more

10-Day Weather Forecast

Advertisements
Track Severe Weather on mobile